Anchorage, Kentucky
Current Conditions -  °F | °C
As of 1:53 AM on Tuesday 21 Oct 2014 (Local Time) from KLOU Reporting Station
Clear Clear  
Wind Chill: 51°   Ceiling: Unl
Heat Index: 51°   Visibility: 10mi
Dew Point: 50°   Wind: 6mph
Humidity: 96%   Direction: 300°WNW
Pressure: 29.96"   Gusts: NA
Location:  38.2621°N, 85.5415°W
Report Text: KLOU 210553Z AUTO 30005KT 10SM CLR 11/10 A2996 RMK AO2 SLP143 60017 T01060100 10167 20094 53005
Loading
Personal Weather Stations






























Interactive Weather Map New forecast layout! Learn more

10-Day Weather Forecast

Advertisements
Track Severe Weather on mobile